createdAt,value
2018-10-17T00:02:17.158Z,44.13
2018-10-17T00:05:21.476Z,45.47
2018-10-17T00:08:25.782Z,45.90
2018-10-17T00:11:30.121Z,43.93
2018-10-17T00:14:34.425Z,46.37
2018-10-17T00:17:38.728Z,44.27
2018-10-17T00:20:43.096Z,46.07
2018-10-17T00:23:47.354Z,45.87
2018-10-17T00:26:51.702Z,46.00
2018-10-17T00:29:56.011Z,46.27
2018-10-17T00:33:00.332Z,48.00
2018-10-17T00:36:04.661Z,45.97
2018-10-17T00:39:11.570Z,46.33
2018-10-17T00:42:15.844Z,44.97
2018-10-17T00:45:20.174Z,45.57
2018-10-17T00:48:24.548Z,47.57
2018-10-17T00:51:28.831Z,46.40
2018-10-17T00:54:33.108Z,45.07
2018-10-17T00:57:37.484Z,46.40
2018-10-17T01:00:41.797Z,46.47
2018-10-17T01:03:52.802Z,47.53
2018-10-17T01:06:57.741Z,47.20
2018-10-17T01:10:02.015Z,45.83
2018-10-17T01:13:08.135Z,46.43
2018-10-17T01:16:12.345Z,46.03
2018-10-17T01:19:16.707Z,49.23
2018-10-17T01:22:20.973Z,48.27
2018-10-17T01:25:25.223Z,46.43
2018-10-17T01:28:29.564Z,46.80
2018-10-17T01:31:33.840Z,46.20
2018-10-17T01:34:38.165Z,47.33
2018-10-17T01:37:42.505Z,47.40
2018-10-17T01:40:46.831Z,45.80
2018-10-17T01:43:51.073Z,49.50
2018-10-17T01:46:55.369Z,48.63
2018-10-17T01:49:59.672Z,48.37
2018-10-17T01:53:04.038Z,50.10
2018-10-17T01:56:08.335Z,47.57
2018-10-17T01:59:12.680Z,48.97
2018-10-17T02:02:16.946Z,48.13
2018-10-17T02:05:21.291Z,48.53
2018-10-17T02:08:25.645Z,49.43
2018-10-17T02:11:30.471Z,49.10
2018-10-17T02:14:34.793Z,48.57
2018-10-17T02:17:39.081Z,48.70
2018-10-17T02:20:43.391Z,46.33
2018-10-17T02:23:47.755Z,46.67
2018-10-17T02:26:52.543Z,48.03
2018-10-17T02:29:56.911Z,49.43
2018-10-17T02:33:01.196Z,49.83
2018-10-17T02:36:05.877Z,47.80
2018-10-17T02:39:11.019Z,49.93
2018-10-17T02:42:15.281Z,49.53
2018-10-17T02:45:19.600Z,49.67
2018-10-17T02:48:24.750Z,48.27
2018-10-17T02:51:29.092Z,47.53
2018-10-17T02:54:33.522Z,51.27
2018-10-17T02:57:38.455Z,49.57
2018-10-17T03:00:42.751Z,47.13
2018-10-17T03:03:47.084Z,47.63
2018-10-17T03:06:51.444Z,48.33
2018-10-17T03:09:55.764Z,49.40
2018-10-17T03:13:00.081Z,49.73
2018-10-17T03:16:04.523Z,48.40
2018-10-17T03:19:09.636Z,49.30
2018-10-17T03:22:13.856Z,50.90
2018-10-17T03:25:18.227Z,50.90
2018-10-17T03:28:22.421Z,51.07
2018-10-17T03:31:26.836Z,50.20
2018-10-17T03:34:31.368Z,50.90
2018-10-17T03:37:36.113Z,50.30
2018-10-17T03:40:40.989Z,50.20
2018-10-17T03:43:45.284Z,48.87
2018-10-17T03:46:49.566Z,49.27
2018-10-17T03:49:54.014Z,49.73
2018-10-17T03:52:58.262Z,49.80
2018-10-17T03:56:02.627Z,50.20
2018-10-17T03:59:07.928Z,50.43
2018-10-17T04:02:12.245Z,51.17
2018-10-17T04:05:17.236Z,50.97
2018-10-17T04:08:21.549Z,51.73
2018-10-17T04:11:26.081Z,52.73
2018-10-17T04:14:30.447Z,52.50
2018-10-17T04:17:34.893Z,53.80
2018-10-17T04:20:39.182Z,54.20
2018-10-17T04:23:44.280Z,54.17
2018-10-17T04:26:48.906Z,54.40
2018-10-17T04:29:56.147Z,54.60
2018-10-17T04:33:00.429Z,52.70
2018-10-17T04:36:04.786Z,53.03
2018-10-17T04:39:11.575Z,52.50
2018-10-17T04:42:15.887Z,53.33
2018-10-17T04:45:20.238Z,53.10
2018-10-17T04:48:24.558Z,52.20
2018-10-17T04:51:28.899Z,52.83
2018-10-17T04:54:33.165Z,55.90
2018-10-17T04:57:37.485Z,55.13
2018-10-17T05:00:41.835Z,55.73
2018-10-17T05:03:46.108Z,56.57
2018-10-17T05:06:50.500Z,55.17
2018-10-17T05:09:54.690Z,56.17
2018-10-17T05:12:59.068Z,54.97
2018-10-17T05:16:04.771Z,57.90
2018-10-17T05:19:10.034Z,57.20
2018-10-17T05:22:14.306Z,55.43
2018-10-17T05:25:18.645Z,57.30
2018-10-17T05:28:23.009Z,55.90
2018-10-17T05:31:27.280Z,56.90
2018-10-17T05:34:31.656Z,56.20
2018-10-17T05:37:36.102Z,58.57
2018-10-17T05:40:40.323Z,53.17
2018-10-17T05:43:44.591Z,55.03
2018-10-17T05:46:49.083Z,50.77
2018-10-17T05:49:53.402Z,48.37
2018-10-17T05:52:57.693Z,50.73
2018-10-17T05:56:02.063Z,51.70
2018-10-17T05:59:06.417Z,53.00
2018-10-17T06:02:13.559Z,53.60
2018-10-17T06:05:17.781Z,53.57
2018-10-17T06:08:22.125Z,54.93
2018-10-17T06:11:26.419Z,54.47
2018-10-17T06:14:30.744Z,54.67
2018-10-17T06:17:35.038Z,51.50
2018-10-17T06:20:39.389Z,51.93
2018-10-17T06:23:43.709Z,54.67
2018-10-17T06:26:48.606Z,53.80
2018-10-17T06:29:53.445Z,52.07
2018-10-17T06:32:57.787Z,51.87
2018-10-17T06:36:03.126Z,54.03
2018-10-17T06:39:10.100Z,51.07
2018-10-17T06:42:14.380Z,54.63
2018-10-17T06:45:20.577Z,54.77
2018-10-17T06:48:25.657Z,54.43
2018-10-17T06:51:30.038Z,57.73
2018-10-17T06:54:34.665Z,56.03
2018-10-17T06:57:38.925Z,65.03
2018-10-17T07:00:43.269Z,64.33
2018-10-17T07:03:47.561Z,59.47
2018-10-17T07:06:51.953Z,61.13
2018-10-17T07:09:56.238Z,59.03
2018-10-17T07:13:00.628Z,59.83
2018-10-17T07:16:05.040Z,58.73
2018-10-17T07:19:09.459Z,56.70
2018-10-17T07:22:13.825Z,54.60
2018-10-17T07:25:18.111Z,55.27
2018-10-17T07:28:22.404Z,56.47
2018-10-17T07:31:27.262Z,51.10
2018-10-17T07:34:31.618Z,51.10
2018-10-17T07:37:35.945Z,48.50
2018-10-17T07:40:40.242Z,50.47
2018-10-17T07:43:44.522Z,48.33
2018-10-17T07:46:48.792Z,47.23
2018-10-17T07:49:53.108Z,48.23
2018-10-17T07:52:57.943Z,45.57
2018-10-17T07:56:02.527Z,46.27
2018-10-17T07:59:06.933Z,44.43
2018-10-17T08:02:11.225Z,44.23
2018-10-17T08:05:15.524Z,45.03
2018-10-17T08:08:19.844Z,43.47
2018-10-17T08:11:24.152Z,43.57
2018-10-17T08:14:29.403Z,42.37
2018-10-17T08:17:33.776Z,42.83
2018-10-17T08:20:38.091Z,42.47
2018-10-17T08:23:42.387Z,42.13
2018-10-17T08:26:46.726Z,41.80
2018-10-17T08:29:51.031Z,42.87
2018-10-17T08:32:55.453Z,40.63
2018-10-17T08:35:59.975Z,41.40
2018-10-17T08:39:05.790Z,42.10
2018-10-17T08:42:11.791Z,40.13
2018-10-17T08:45:16.154Z,39.87
2018-10-17T08:48:20.457Z,39.17
2018-10-17T08:51:24.769Z,39.47
2018-10-17T08:54:29.096Z,38.53
2018-10-17T08:57:33.429Z,39.67
2018-10-17T09:04:13.385Z,38.73
2018-10-17T09:07:17.819Z,36.77
2018-10-17T09:10:22.107Z,38.70
2018-10-17T09:13:26.556Z,35.93
2018-10-17T09:16:30.977Z,35.33
2018-10-17T09:19:35.501Z,35.10
2018-10-17T09:22:39.700Z,32.60
2018-10-17T09:25:44.010Z,33.33
2018-10-17T09:28:48.189Z,29.80
2018-10-17T09:31:52.478Z,27.97
2018-10-17T09:34:56.781Z,27.80
2018-10-17T09:38:01.152Z,29.23
2018-10-17T09:41:05.421Z,26.90
2018-10-17T09:44:09.757Z,26.17
2018-10-17T09:47:14.077Z,24.97
2018-10-17T09:50:18.377Z,25.27
2018-10-17T09:53:22.847Z,24.63
2018-10-17T09:56:27.078Z,24.07
2018-10-17T09:59:31.401Z,23.10
2018-10-17T10:02:35.719Z,23.27
2018-10-17T10:05:39.987Z,22.97
2018-10-17T10:08:44.291Z,23.80
2018-10-17T10:11:48.518Z,22.87
2018-10-17T10:14:52.870Z,23.83
2018-10-17T10:17:57.376Z,22.97
2018-10-17T10:21:01.734Z,23.33
2018-10-17T10:24:06.126Z,23.47
2018-10-17T10:27:10.476Z,22.93
2018-10-17T10:30:14.897Z,22.60
2018-10-17T10:33:19.180Z,22.80
2018-10-17T10:36:23.772Z,21.47
2018-10-17T10:39:28.071Z,23.30
2018-10-17T10:42:32.380Z,21.23
2018-10-17T10:45:36.774Z,52.80
2018-10-17T10:48:41.117Z,22.23
2018-10-17T10:51:45.541Z,42.57
2018-10-17T10:54:49.775Z,18.80
2018-10-17T10:57:54.040Z,17.20
2018-10-17T11:00:58.323Z,16.97
2018-10-17T11:04:04.677Z,17.93
2018-10-17T11:07:09.153Z,18.60
2018-10-17T11:10:13.755Z,18.47
2018-10-17T11:13:18.336Z,19.53
2018-10-17T11:16:23.060Z,19.40
2018-10-17T11:19:27.656Z,21.23
2018-10-17T11:22:31.931Z,20.27
2018-10-17T11:25:36.329Z,19.87
2018-10-17T11:28:40.677Z,20.97
2018-10-17T11:31:44.925Z,21.13
2018-10-17T11:34:49.197Z,21.43
2018-10-17T11:37:53.630Z,20.07
2018-10-17T11:40:57.902Z,22.17
2018-10-17T11:44:02.165Z,21.60
2018-10-17T11:47:06.621Z,22.43
2018-10-17T11:50:12.358Z,22.20
2018-10-17T11:53:16.723Z,21.37
2018-10-17T11:56:21.064Z,22.17
2018-10-17T11:59:25.580Z,20.80
2018-10-17T12:02:29.867Z,21.17
2018-10-17T12:05:34.507Z,23.13
2018-10-17T12:08:38.472Z,22.27
2018-10-17T12:11:42.820Z,21.70
2018-10-17T12:14:47.388Z,23.23
2018-10-17T12:17:51.731Z,24.63
2018-10-17T12:20:56.022Z,24.60
2018-10-17T12:24:00.537Z,24.27
2018-10-17T12:27:05.015Z,25.10
2018-10-17T12:30:13.019Z,24.10
2018-10-17T12:33:17.348Z,27.17
2018-10-17T12:36:21.825Z,26.73
2018-10-17T12:39:26.272Z,25.00
2018-10-17T12:42:31.406Z,25.77
2018-10-17T12:45:35.858Z,26.23
2018-10-17T12:48:40.233Z,25.70
2018-10-17T12:51:44.671Z,26.33
2018-10-17T12:54:49.070Z,25.70
2018-10-17T12:57:53.586Z,26.77
2018-10-17T13:00:57.952Z,28.13
2018-10-17T13:04:02.356Z,27.10
2018-10-17T13:07:07.002Z,26.17
2018-10-17T13:10:12.163Z,27.13
2018-10-17T13:13:16.494Z,26.07
2018-10-17T13:16:20.721Z,25.63
2018-10-17T13:19:25.525Z,28.20
2018-10-17T13:22:29.818Z,27.37
2018-10-17T13:25:34.772Z,27.00
2018-10-17T13:28:39.047Z,27.93
2018-10-17T13:31:43.338Z,27.03
2018-10-17T13:34:47.692Z,26.93
2018-10-17T13:37:52.029Z,25.77
2018-10-17T13:40:56.310Z,26.17
2018-10-17T13:44:00.655Z,27.00
2018-10-17T13:47:06.012Z,26.30
2018-10-17T13:50:10.348Z,27.70
2018-10-17T13:53:15.143Z,27.90
2018-10-17T13:56:19.289Z,27.83
2018-10-17T13:59:23.686Z,26.00
2018-10-17T14:02:27.868Z,26.33
2018-10-17T14:05:32.203Z,26.30
2018-10-17T14:08:36.545Z,28.23
2018-10-17T14:11:41.926Z,28.53
2018-10-17T14:14:46.149Z,30.10
2018-10-17T14:17:50.526Z,28.97
2018-10-17T14:20:54.943Z,29.77
2018-10-17T14:23:59.736Z,29.83
2018-10-17T14:27:04.163Z,30.30
2018-10-17T14:30:09.073Z,30.47
2018-10-17T14:33:13.477Z,30.67
2018-10-17T14:36:17.808Z,31.03
2018-10-17T14:39:22.153Z,30.10
2018-10-17T14:42:26.392Z,31.67
2018-10-17T14:45:30.744Z,31.63
2018-10-17T14:48:35.011Z,32.20
2018-10-17T14:51:39.544Z,32.00
2018-10-17T14:54:43.891Z,33.33
2018-10-17T14:57:48.173Z,33.73
2018-10-17T15:00:52.578Z,33.47
2018-10-17T15:03:56.866Z,35.20
2018-10-17T15:07:01.173Z,34.27
2018-10-17T15:10:05.815Z,31.00
2018-10-17T15:13:10.136Z,36.80
2018-10-17T15:16:14.518Z,34.90
2018-10-17T15:19:18.855Z,36.80
2018-10-17T15:22:23.268Z,35.87
2018-10-17T15:25:27.605Z,37.67
2018-10-17T15:28:31.941Z,37.43
2018-10-17T15:31:36.242Z,36.77
2018-10-17T15:34:40.555Z,37.40
2018-10-17T15:37:44.902Z,36.70
2018-10-17T15:40:49.347Z,37.13
2018-10-17T15:43:53.892Z,37.17
2018-10-17T15:46:58.157Z,36.93
2018-10-17T15:50:02.476Z,38.83
2018-10-17T15:53:06.922Z,37.90
2018-10-17T15:56:11.105Z,38.93
2018-10-17T15:59:15.433Z,38.10
2018-10-17T16:02:19.861Z,39.63
2018-10-17T16:05:24.187Z,41.77
2018-10-17T16:08:28.594Z,39.87
2018-10-17T16:11:32.903Z,38.63
2018-10-17T16:14:37.316Z,40.50
2018-10-17T16:17:41.751Z,41.10
2018-10-17T16:20:46.096Z,42.70
2018-10-17T16:23:50.513Z,42.27
2018-10-17T16:26:54.934Z,40.37
2018-10-17T16:29:59.525Z,44.23
2018-10-17T16:33:03.754Z,44.87
2018-10-17T16:36:08.123Z,45.37
2018-10-17T16:39:13.952Z,45.00
2018-10-17T16:42:18.341Z,43.93
2018-10-17T16:45:22.684Z,45.77
2018-10-17T16:48:26.990Z,46.93
2018-10-17T16:51:32.014Z,45.47
2018-10-17T16:54:36.361Z,46.00
2018-10-17T16:57:40.670Z,43.87
2018-10-17T17:00:46.147Z,44.93
2018-10-17T17:03:50.399Z,45.77
2018-10-17T17:06:54.662Z,45.57
2018-10-17T17:09:59.709Z,47.70
2018-10-17T17:13:04.027Z,46.53
2018-10-17T17:16:08.349Z,47.23
2018-10-17T17:19:12.649Z,47.50
2018-10-17T17:22:17.091Z,47.90
2018-10-17T17:25:21.403Z,47.40
2018-10-17T17:28:25.747Z,46.33
2018-10-17T17:31:30.015Z,48.77
2018-10-17T17:34:35.604Z,49.17
2018-10-17T17:37:39.942Z,49.87
2018-10-17T17:40:44.329Z,50.67
2018-10-17T17:43:48.568Z,50.40
2018-10-17T17:46:52.879Z,49.30
2018-10-17T17:49:57.167Z,50.57
2018-10-17T17:53:01.698Z,49.83
2018-10-17T17:56:06.188Z,50.17
2018-10-17T17:59:10.594Z,49.97
2018-10-17T18:02:14.963Z,51.03
2018-10-17T18:05:19.340Z,48.33
2018-10-17T18:08:23.715Z,50.70
2018-10-17T18:11:28.261Z,46.53
2018-10-17T18:14:32.624Z,50.63
2018-10-17T18:17:38.817Z,46.87
2018-10-17T18:20:43.182Z,48.10
2018-10-17T18:23:47.589Z,51.50
2018-10-17T18:26:51.906Z,47.80
2018-10-17T18:29:57.045Z,47.17
2018-10-17T18:33:01.512Z,48.27
2018-10-17T18:36:06.219Z,45.07
2018-10-17T18:39:10.646Z,43.67
2018-10-17T18:42:15.848Z,45.97
2018-10-17T18:45:20.177Z,49.60
2018-10-17T18:48:25.179Z,45.00
2018-10-17T18:51:29.543Z,44.60
2018-10-17T18:54:33.998Z,42.20
2018-10-17T18:57:38.369Z,41.80
2018-10-17T19:00:42.830Z,41.50
2018-10-17T19:03:47.157Z,41.23
2018-10-17T19:06:51.496Z,39.30
2018-10-17T19:09:55.925Z,38.80
2018-10-17T19:13:00.334Z,38.40
2018-10-17T19:16:04.737Z,38.17
2018-10-17T19:19:09.071Z,42.73
2018-10-17T19:22:13.421Z,41.70
2018-10-17T19:25:17.740Z,39.93
2018-10-17T19:28:22.140Z,38.47
2018-10-17T19:31:26.527Z,37.10
2018-10-17T19:34:30.881Z,39.77
2018-10-17T19:37:35.793Z,35.97
2018-10-17T19:40:40.118Z,35.67
2018-10-17T19:43:44.555Z,32.47
2018-10-17T19:46:48.981Z,31.87
2018-10-17T19:49:53.309Z,26.07
2018-10-17T19:52:57.634Z,28.93
2018-10-17T19:56:02.140Z,31.63
2018-10-17T19:59:06.818Z,26.20
2018-10-17T20:02:12.156Z,27.60
2018-10-17T20:05:16.449Z,27.63
2018-10-17T20:08:20.875Z,27.50
2018-10-17T20:11:25.193Z,25.43
2018-10-17T20:14:29.596Z,24.87
2018-10-17T20:17:34.014Z,24.97
2018-10-17T20:20:38.313Z,24.50
2018-10-17T20:23:42.688Z,25.97
2018-10-17T20:26:47.134Z,26.03
2018-10-17T20:29:52.285Z,24.30
2018-10-17T20:32:57.304Z,25.77
2018-10-17T20:36:01.644Z,26.13
2018-10-17T20:39:12.650Z,24.80
2018-10-17T20:42:16.993Z,24.60
2018-10-17T20:45:21.442Z,25.60
2018-10-17T20:48:26.803Z,26.77
2018-10-17T20:51:31.894Z,26.13
2018-10-17T20:54:37.680Z,27.43
2018-10-17T20:57:42.005Z,27.90
2018-10-17T21:00:46.397Z,28.33
2018-10-17T21:03:50.721Z,28.70
2018-10-17T21:06:55.075Z,27.60
2018-10-17T21:09:59.446Z,28.00
2018-10-17T21:13:03.804Z,28.03
2018-10-17T21:16:08.203Z,28.80
2018-10-17T21:19:12.559Z,29.00
2018-10-17T21:22:17.172Z,28.70
2018-10-17T21:25:21.858Z,28.50
2018-10-17T21:28:26.304Z,28.13
2018-10-17T21:31:30.848Z,27.60
2018-10-17T21:34:35.146Z,26.97
2018-10-17T21:37:39.551Z,27.70
2018-10-17T21:40:43.784Z,28.87
2018-10-17T21:43:48.197Z,27.67
2018-10-17T21:46:52.649Z,26.30
2018-10-17T21:49:56.955Z,28.10
2018-10-17T21:53:01.390Z,28.70
2018-10-17T21:56:05.837Z,27.97
2018-10-17T21:59:10.169Z,28.50
2018-10-17T22:02:14.738Z,28.37
2018-10-17T22:05:18.997Z,29.90
2018-10-17T22:08:23.301Z,27.90
2018-10-17T22:11:27.684Z,27.53
2018-10-17T22:14:32.044Z,27.37
2018-10-17T22:17:36.400Z,27.53
2018-10-17T22:20:41.612Z,30.07
2018-10-17T22:23:45.990Z,30.13
2018-10-17T22:26:50.247Z,28.73
2018-10-17T22:29:54.693Z,28.20
2018-10-17T22:32:59.931Z,28.30
2018-10-17T22:36:04.917Z,29.50
2018-10-17T22:39:13.268Z,27.70
2018-10-17T22:42:17.552Z,30.07
2018-10-17T22:45:21.997Z,28.90
2018-10-17T22:48:26.372Z,30.37
2018-10-17T22:51:30.804Z,29.73
2018-10-17T22:54:35.225Z,30.83
2018-10-17T22:57:41.689Z,31.33
2018-10-17T23:00:45.991Z,30.70
2018-10-17T23:03:50.418Z,29.93
2018-10-17T23:06:54.702Z,31.10
2018-10-17T23:09:59.000Z,29.87
2018-10-17T23:13:04.597Z,30.67
2018-10-17T23:16:08.872Z,31.00
2018-10-17T23:19:13.262Z,32.23
2018-10-17T23:22:17.599Z,30.80
2018-10-17T23:25:21.908Z,32.30
2018-10-17T23:46:17.360Z,36.33
2018-10-17T23:49:22.648Z,40.40
2018-10-17T23:52:27.047Z,39.73
